Meath Environmental Platform

Observations for Trim Market St

Time AQI Temp °C Hum % Pres Pa CO μg/m³ H₂S μg/m³ NO μg/m³ NO₂ μg/m³ O₃ μg/m³ SO₂ μg/m³ PM1 μg/m³ PM2.5 μg/m³ PM10 μg/m³
Sunday 12 July 2026
17:21 2 30.6 38 65,690 0 14.18 0 8.05 41.24 0 2.14 4.59 5.04
17:19 2 30.8 37 65,799 0 11.78 0 6.26 36.92 0 2.14 5.15 5.66
17:18 2 31 37 65,841 0 12.17 0 5.83 44.93 0 0.71 4.09 4.5
17:17 2 31.1 36 65,870 0 16.27 0 6.74 42.83 0 2.14 4.64 5.05
17:16 2 31.3 36 65,935 0 12.55 0 6.62 46.81 0 1.43 4.65 5.04
17:14 2 31.6 36 65,987 0 6.94 0 2.5 42.58 0 0.71 4.14 4.2
17:12 2 31.9 35 66,023 0 8.05 0 4.56 39.17 0 2.85 6.3 6.69
17:11 2 32.1 35 66,037 0 7.39 0 4.33 38.02 0 2.14 5.24 5.86
17:09 2 32.4 35 66,096 0 0.67 0 0.77 34.23 0 0.71 4.18 4.59
17:08 2 32.5 35 66,127 0 4.83 0 5.26 33.84 0 2.14 4.72 5.02
17:05 1 32.8 34 66,163 0 6.39 0 6.3 40.09 0 0.71 3.65 4.02
17:00 1 33.1 34 66,165 0 3.73 0 4.49 40.73 0 0.71 4.76 5
16:59 1 33.1 34 66,176 0 3.35 0 3.6 37.87 0 1.43 5.3 5.83
16:56 1 33.3 34 66,188 0 0.91 0 4.88 38.92 0 0 3.7 4.07
16:50 1 33.7 33 66,256 0 0 0 0 33.96 0 0.71 3.72 4.1
16:49 1 33.7 33 66,260 0 0 0 1.85 32.63 0 2.14 5.35 5.83
16:48 1 33.8 33 66,266 0 0 0 2.04 34.55 0 1.43 4.27 4.98
16:47 1 33.9 33 66,299 0 0 0 0.52 33.27 0 1.43 4.82 5.3
16:46 1 33.9 33 66,311 0 0 0 1.42 41.38 0 0.71 4.28 4.71
16:45 1 33.9 32 66,297 0 0 0 0.23 29.72 0 1.43 4.28 4.71